sensor_id;sensor_type;location;lat;lon;timestamp;P1;durP1;ratioP1;P2;durP2;ratioP2
16928;SDS011;8581;47.334;11.190;2022-07-29T00:00:19;3.07;;;2.87;;
16928;SDS011;8581;47.334;11.190;2022-07-29T00:02:51;3.47;;;2.67;;
16928;SDS011;8581;47.334;11.190;2022-07-29T00:05:22;2.60;;;2.40;;
16928;SDS011;8581;47.334;11.190;2022-07-29T00:07:54;2.70;;;2.50;;
16928;SDS011;8581;47.334;11.190;2022-07-29T00:10:26;2.27;;;2.17;;
16928;SDS011;8581;47.334;11.190;2022-07-29T00:12:57;2.77;;;2.20;;
16928;SDS011;8581;47.334;11.190;2022-07-29T00:15:29;2.50;;;2.30;;
16928;SDS011;8581;47.334;11.190;2022-07-29T00:18:00;2.80;;;2.60;;
16928;SDS011;8581;47.334;11.190;2022-07-29T00:20:32;3.47;;;2.63;;
16928;SDS011;8581;47.334;11.190;2022-07-29T00:23:04;2.90;;;2.70;;
16928;SDS011;8581;47.334;11.190;2022-07-29T00:25:35;3.03;;;2.83;;
16928;SDS011;8581;47.334;11.190;2022-07-29T00:28:07;4.23;;;3.00;;
16928;SDS011;8581;47.334;11.190;2022-07-29T00:30:38;4.23;;;3.07;;
16928;SDS011;8581;47.334;11.190;2022-07-29T00:33:10;3.47;;;3.17;;
16928;SDS011;8581;47.334;11.190;2022-07-29T00:35:42;2.90;;;2.70;;
16928;SDS011;8581;47.334;11.190;2022-07-29T00:38:15;3.20;;;2.90;;
16928;SDS011;8581;47.334;11.190;2022-07-29T00:40:46;4.60;;;2.97;;
16928;SDS011;8581;47.334;11.190;2022-07-29T00:43:17;3.07;;;2.87;;
16928;SDS011;8581;47.334;11.190;2022-07-29T00:45:49;2.90;;;2.70;;
16928;SDS011;8581;47.334;11.190;2022-07-29T00:48:21;3.20;;;2.90;;
16928;SDS011;8581;47.334;11.190;2022-07-29T00:50:52;3.27;;;2.70;;
16928;SDS011;8581;47.334;11.190;2022-07-29T00:53:24;3.23;;;2.87;;
16928;SDS011;8581;47.334;11.190;2022-07-29T00:55:56;2.73;;;2.53;;
16928;SDS011;8581;47.334;11.190;2022-07-29T00:58:27;3.10;;;2.90;;
16928;SDS011;8581;47.334;11.190;2022-07-29T01:00:58;2.93;;;2.60;;
16928;SDS011;8581;47.334;11.190;2022-07-29T01:03:30;3.40;;;3.10;;
16928;SDS011;8581;47.334;11.190;2022-07-29T01:06:02;3.23;;;3.03;;
16928;SDS011;8581;47.334;11.190;2022-07-29T01:08:33;3.13;;;2.93;;
16928;SDS011;8581;47.334;11.190;2022-07-29T01:11:05;2.93;;;2.73;;
16928;SDS011;8581;47.334;11.190;2022-07-29T01:13:37;4.03;;;3.20;;
16928;SDS011;8581;47.334;11.190;2022-07-29T01:16:12;3.20;;;3.00;;
16928;SDS011;8581;47.334;11.190;2022-07-29T01:18:43;3.50;;;3.20;;
16928;SDS011;8581;47.334;11.190;2022-07-29T01:24:36;3.23;;;2.93;;
16928;SDS011;8581;47.334;11.190;2022-07-29T01:29:44;3.13;;;2.90;;
16928;SDS011;8581;47.334;11.190;2022-07-29T01:32:15;3.20;;;2.90;;
16928;SDS011;8581;47.334;11.190;2022-07-29T01:34:50;3.00;;;2.80;;
16928;SDS011;8581;47.334;11.190;2022-07-29T01:37:29;3.40;;;3.20;;
16928;SDS011;8581;47.334;11.190;2022-07-29T01:40:02;3.00;;;2.80;;
16928;SDS011;8581;47.334;11.190;2022-07-29T01:42:35;3.60;;;3.27;;
16928;SDS011;8581;47.334;11.190;2022-07-29T01:45:10;3.20;;;3.00;;
16928;SDS011;8581;47.334;11.190;2022-07-29T01:47:44;3.50;;;3.20;;
16928;SDS011;8581;47.334;11.190;2022-07-29T01:50:15;3.40;;;3.10;;
16928;SDS011;8581;47.334;11.190;2022-07-29T01:52:49;3.37;;;3.07;;
16928;SDS011;8581;47.334;11.190;2022-07-29T01:55:20;3.00;;;2.80;;
16928;SDS011;8581;47.334;11.190;2022-07-29T01:57:52;3.00;;;2.80;;
16928;SDS011;8581;47.334;11.190;2022-07-29T02:00:23;3.27;;;3.07;;
16928;SDS011;8581;47.334;11.190;2022-07-29T02:02:55;3.90;;;3.60;;
16928;SDS011;8581;47.334;11.190;2022-07-29T02:05:27;3.60;;;3.30;;
16928;SDS011;8581;47.334;11.190;2022-07-29T02:07:58;4.07;;;3.77;;
16928;SDS011;8581;47.334;11.190;2022-07-29T02:10:31;4.30;;;3.73;;
16928;SDS011;8581;47.334;11.190;2022-07-29T02:13:02;3.87;;;3.43;;
16928;SDS011;8581;47.334;11.190;2022-07-29T02:15:33;3.80;;;3.50;;
16928;SDS011;8581;47.334;11.190;2022-07-29T02:18:06;5.03;;;3.97;;
16928;SDS011;8581;47.334;11.190;2022-07-29T02:20:37;3.43;;;3.13;;
16928;SDS011;8581;47.334;11.190;2022-07-29T02:23:10;3.83;;;3.53;;
16928;SDS011;8581;47.334;11.190;2022-07-29T02:25:41;3.70;;;3.40;;
16928;SDS011;8581;47.334;11.190;2022-07-29T02:28:12;4.30;;;3.70;;
16928;SDS011;8581;47.334;11.190;2022-07-29T02:30:44;3.80;;;3.50;;
16928;SDS011;8581;47.334;11.190;2022-07-29T02:33:15;3.87;;;3.57;;
16928;SDS011;8581;47.334;11.190;2022-07-29T02:35:47;3.87;;;3.57;;
16928;SDS011;8581;47.334;11.190;2022-07-29T02:38:18;3.67;;;3.07;;
16928;SDS011;8581;47.334;11.190;2022-07-29T02:40:55;4.37;;;3.50;;
16928;SDS011;8581;47.334;11.190;2022-07-29T02:43:27;3.60;;;3.30;;
16928;SDS011;8581;47.334;11.190;2022-07-29T02:45:59;4.10;;;3.70;;
16928;SDS011;8581;47.334;11.190;2022-07-29T02:48:33;3.83;;;3.53;;
16928;SDS011;8581;47.334;11.190;2022-07-29T02:51:06;4.40;;;3.60;;
16928;SDS011;8581;47.334;11.190;2022-07-29T02:53:36;3.80;;;3.50;;
16928;SDS011;8581;47.334;11.190;2022-07-29T02:56:10;4.47;;;3.63;;
16928;SDS011;8581;47.334;11.190;2022-07-29T02:58:41;4.00;;;3.70;;
16928;SDS011;8581;47.334;11.190;2022-07-29T03:01:14;3.90;;;3.60;;
16928;SDS011;8581;47.334;11.190;2022-07-29T03:03:45;4.03;;;3.73;;
16928;SDS011;8581;47.334;11.190;2022-07-29T03:06:17;4.27;;;3.97;;
16928;SDS011;8581;47.334;11.190;2022-07-29T03:08:48;3.70;;;3.40;;
16928;SDS011;8581;47.334;11.190;2022-07-29T03:11:20;4.33;;;3.73;;
16928;SDS011;8581;47.334;11.190;2022-07-29T03:13:51;3.87;;;3.57;;
16928;SDS011;8581;47.334;11.190;2022-07-29T03:16:23;4.40;;;4.00;;
16928;SDS011;8581;47.334;11.190;2022-07-29T03:18:55;4.07;;;3.77;;
16928;SDS011;8581;47.334;11.190;2022-07-29T03:21:26;4.20;;;3.80;;
16928;SDS011;8581;47.334;11.190;2022-07-29T03:23:58;4.23;;;3.93;;
16928;SDS011;8581;47.334;11.190;2022-07-29T03:26:29;5.23;;;4.73;;
16928;SDS011;8581;47.334;11.190;2022-07-29T03:29:01;4.73;;;4.33;;
16928;SDS011;8581;47.334;11.190;2022-07-29T03:31:33;5.23;;;4.40;;
16928;SDS011;8581;47.334;11.190;2022-07-29T03:34:04;4.27;;;3.90;;
16928;SDS011;8581;47.334;11.190;2022-07-29T03:36:36;4.80;;;4.40;;
16928;SDS011;8581;47.334;11.190;2022-07-29T03:39:07;4.30;;;4.00;;
16928;SDS011;8581;47.334;11.190;2022-07-29T03:41:39;4.93;;;4.40;;
16928;SDS011;8581;47.334;11.190;2022-07-29T03:44:11;4.40;;;4.00;;
16928;SDS011;8581;47.334;11.190;2022-07-29T03:46:42;4.40;;;4.10;;
16928;SDS011;8581;47.334;11.190;2022-07-29T03:49:14;4.57;;;4.20;;
16928;SDS011;8581;47.334;11.190;2022-07-29T03:51:45;4.97;;;4.57;;
16928;SDS011;8581;47.334;11.190;2022-07-29T03:54:17;7.03;;;6.27;;
16928;SDS011;8581;47.334;11.190;2022-07-29T03:56:48;8.10;;;7.40;;
16928;SDS011;8581;47.334;11.190;2022-07-29T03:59:21;8.73;;;7.83;;
16928;SDS011;8581;47.334;11.190;2022-07-29T04:01:53;9.57;;;8.67;;
16928;SDS011;8581;47.334;11.190;2022-07-29T04:04:24;9.20;;;8.40;;
16928;SDS011;8581;47.334;11.190;2022-07-29T04:06:56;8.77;;;7.97;;
16928;SDS011;8581;47.334;11.190;2022-07-29T04:09:27;8.73;;;7.93;;
16928;SDS011;8581;47.334;11.190;2022-07-29T04:11:59;8.63;;;7.93;;
16928;SDS011;8581;47.334;11.190;2022-07-29T04:14:31;8.30;;;7.50;;
16928;SDS011;8581;47.334;11.190;2022-07-29T04:17:03;7.70;;;7.00;;
16928;SDS011;8581;47.334;11.190;2022-07-29T04:19:34;6.23;;;5.73;;
16928;SDS011;8581;47.334;11.190;2022-07-29T04:22:05;5.40;;;5.00;;
16928;SDS011;8581;47.334;11.190;2022-07-29T04:24:37;5.63;;;4.53;;
16928;SDS011;8581;47.334;11.190;2022-07-29T04:27:08;4.20;;;3.80;;
16928;SDS011;8581;47.334;11.190;2022-07-29T04:29:40;4.07;;;3.67;;
16928;SDS011;8581;47.334;11.190;2022-07-29T04:32:12;5.17;;;3.67;;
16928;SDS011;8581;47.334;11.190;2022-07-29T04:34:43;3.40;;;3.10;;
16928;SDS011;8581;47.334;11.190;2022-07-29T04:37:15;4.27;;;3.73;;
16928;SDS011;8581;47.334;11.190;2022-07-29T04:39:46;3.20;;;3.00;;
16928;SDS011;8581;47.334;11.190;2022-07-29T04:42:18;3.97;;;3.00;;
16928;SDS011;8581;47.334;11.190;2022-07-29T04:44:50;3.30;;;3.00;;
16928;SDS011;8581;47.334;11.190;2022-07-29T04:47:21;3.57;;;3.27;;
16928;SDS011;8581;47.334;11.190;2022-07-29T04:49:53;3.53;;;3.23;;
16928;SDS011;8581;47.334;11.190;2022-07-29T04:52:24;3.80;;;3.40;;
16928;SDS011;8581;47.334;11.190;2022-07-29T04:54:56;3.23;;;2.93;;
16928;SDS011;8581;47.334;11.190;2022-07-29T04:57:28;5.37;;;3.40;;
16928;SDS011;8581;47.334;11.190;2022-07-29T04:59:59;3.40;;;3.13;;
16928;SDS011;8581;47.334;11.190;2022-07-29T05:02:31;3.13;;;2.83;;
16928;SDS011;8581;47.334;11.190;2022-07-29T05:05:02;3.17;;;2.90;;
16928;SDS011;8581;47.334;11.190;2022-07-29T05:07:34;2.90;;;2.70;;
16928;SDS011;8581;47.334;11.190;2022-07-29T05:10:06;3.60;;;2.90;;
16928;SDS011;8581;47.334;11.190;2022-07-29T05:12:38;2.83;;;2.63;;
16928;SDS011;8581;47.334;11.190;2022-07-29T05:15:10;2.67;;;2.47;;
16928;SDS011;8581;47.334;11.190;2022-07-29T05:17:41;2.67;;;2.47;;
16928;SDS011;8581;47.334;11.190;2022-07-29T05:20:14;2.23;;;2.13;;
16928;SDS011;8581;47.334;11.190;2022-07-29T05:23:00;2.60;;;2.40;;
16928;SDS011;8581;47.334;11.190;2022-07-29T05:25:32;2.83;;;2.63;;
16928;SDS011;8581;47.334;11.190;2022-07-29T05:28:09;3.00;;;2.37;;
16928;SDS011;8581;47.334;11.190;2022-07-29T05:30:41;3.67;;;2.40;;
16928;SDS011;8581;47.334;11.190;2022-07-29T05:33:12;3.80;;;2.30;;
16928;SDS011;8581;47.334;11.190;2022-07-29T05:35:44;2.20;;;2.10;;
16928;SDS011;8581;47.334;11.190;2022-07-29T05:38:15;2.17;;;2.07;;
16928;SDS011;8581;47.334;11.190;2022-07-29T05:40:48;1.93;;;1.83;;
16928;SDS011;8581;47.334;11.190;2022-07-29T05:43:19;2.43;;;2.13;;
16928;SDS011;8581;47.334;11.190;2022-07-29T05:45:51;1.77;;;1.67;;
16928;SDS011;8581;47.334;11.190;2022-07-29T05:48:22;2.23;;;2.07;;
16928;SDS011;8581;47.334;11.190;2022-07-29T05:50:54;2.00;;;1.83;;
16928;SDS011;8581;47.334;11.190;2022-07-29T05:53:26;2.50;;;1.73;;
16928;SDS011;8581;47.334;11.190;2022-07-29T05:55:57;1.80;;;1.70;;
16928;SDS011;8581;47.334;11.190;2022-07-29T05:58:29;1.80;;;1.70;;
16928;SDS011;8581;47.334;11.190;2022-07-29T06:01:00;2.40;;;1.50;;
16928;SDS011;8581;47.334;11.190;2022-07-29T06:03:32;1.80;;;1.70;;
16928;SDS011;8581;47.334;11.190;2022-07-29T06:06:04;2.93;;;1.70;;
16928;SDS011;8581;47.334;11.190;2022-07-29T06:08:36;2.53;;;1.60;;
16928;SDS011;8581;47.334;11.190;2022-07-29T06:11:07;1.73;;;1.57;;
16928;SDS011;8581;47.334;11.190;2022-07-29T06:13:39;1.90;;;1.57;;
16928;SDS011;8581;47.334;11.190;2022-07-29T06:16:22;2.97;;;1.70;;
16928;SDS011;8581;47.334;11.190;2022-07-29T06:18:54;3.37;;;1.70;;
16928;SDS011;8581;47.334;11.190;2022-07-29T06:21:25;2.20;;;1.73;;
16928;SDS011;8581;47.334;11.190;2022-07-29T06:23:57;1.87;;;1.53;;
16928;SDS011;8581;47.334;11.190;2022-07-29T06:26:29;1.70;;;1.60;;
16928;SDS011;8581;47.334;11.190;2022-07-29T06:29:00;2.47;;;1.83;;
16928;SDS011;8581;47.334;11.190;2022-07-29T06:31:32;1.70;;;1.60;;
16928;SDS011;8581;47.334;11.190;2022-07-29T06:34:03;2.93;;;1.57;;
16928;SDS011;8581;47.334;11.190;2022-07-29T06:36:35;2.00;;;1.60;;
16928;SDS011;8581;47.334;11.190;2022-07-29T06:39:07;2.37;;;1.77;;
16928;SDS011;8581;47.334;11.190;2022-07-29T06:41:38;1.83;;;1.67;;
16928;SDS011;8581;47.334;11.190;2022-07-29T06:44:10;1.93;;;1.70;;
16928;SDS011;8581;47.334;11.190;2022-07-29T06:46:41;3.00;;;1.73;;
16928;SDS011;8581;47.334;11.190;2022-07-29T06:49:13;2.87;;;1.57;;
16928;SDS011;8581;47.334;11.190;2022-07-29T06:51:45;1.90;;;1.80;;
16928;SDS011;8581;47.334;11.190;2022-07-29T06:54:16;3.70;;;1.63;;
16928;SDS011;8581;47.334;11.190;2022-07-29T06:56:48;2.07;;;1.53;;
16928;SDS011;8581;47.334;11.190;2022-07-29T06:59:19;1.60;;;1.50;;
16928;SDS011;8581;47.334;11.190;2022-07-29T07:01:51;1.70;;;1.60;;
16928;SDS011;8581;47.334;11.190;2022-07-29T07:04:22;2.37;;;1.80;;
16928;SDS011;8581;47.334;11.190;2022-07-29T07:06:54;1.73;;;1.63;;
16928;SDS011;8581;47.334;11.190;2022-07-29T07:09:26;3.30;;;1.60;;
16928;SDS011;8581;47.334;11.190;2022-07-29T07:11:57;1.90;;;1.50;;
16928;SDS011;8581;47.334;11.190;2022-07-29T07:14:29;1.40;;;1.30;;
16928;SDS011;8581;47.334;11.190;2022-07-29T07:17:00;1.57;;;1.47;;
16928;SDS011;8581;47.334;11.190;2022-07-29T07:19:32;7.63;;;3.50;;
16928;SDS011;8581;47.334;11.190;2022-07-29T07:22:04;12.67;;;4.93;;
16928;SDS011;8581;47.334;11.190;2022-07-29T07:24:35;5.50;;;2.10;;
16928;SDS011;8581;47.334;11.190;2022-07-29T07:27:07;2.33;;;1.67;;
16928;SDS011;8581;47.334;11.190;2022-07-29T07:29:38;2.63;;;1.90;;
16928;SDS011;8581;47.334;11.190;2022-07-29T07:32:10;1.40;;;1.30;;
16928;SDS011;8581;47.334;11.190;2022-07-29T07:34:42;2.30;;;1.50;;
16928;SDS011;8581;47.334;11.190;2022-07-29T07:37:13;1.77;;;1.50;;
16928;SDS011;8581;47.334;11.190;2022-07-29T07:39:45;1.40;;;1.30;;
16928;SDS011;8581;47.334;11.190;2022-07-29T07:42:17;1.50;;;1.40;;
16928;SDS011;8581;47.334;11.190;2022-07-29T07:44:48;1.37;;;1.27;;
16928;SDS011;8581;47.334;11.190;2022-07-29T07:47:20;1.32;;;1.22;;
16928;SDS011;8581;47.334;11.190;2022-07-29T07:49:52;1.40;;;1.30;;
16928;SDS011;8581;47.334;11.190;2022-07-29T07:52:23;2.13;;;1.90;;
16928;SDS011;8581;47.334;11.190;2022-07-29T07:54:54;1.30;;;1.20;;
16928;SDS011;8581;47.334;11.190;2022-07-29T07:57:26;1.17;;;1.10;;
16928;SDS011;8581;47.334;11.190;2022-07-29T07:59:58;1.35;;;1.15;;
16928;SDS011;8581;47.334;11.190;2022-07-29T08:02:29;1.92;;;1.20;;
16928;SDS011;8581;47.334;11.190;2022-07-29T08:05:01;1.40;;;1.30;;
16928;SDS011;8581;47.334;11.190;2022-07-29T08:07:32;1.05;;;1.00;;
16928;SDS011;8581;47.334;11.190;2022-07-29T08:10:04;1.22;;;1.12;;
16928;SDS011;8581;47.334;11.190;2022-07-29T08:12:36;1.20;;;1.00;;
16928;SDS011;8581;47.334;11.190;2022-07-29T08:15:08;1.35;;;1.25;;
16928;SDS011;8581;47.334;11.190;2022-07-29T08:17:40;1.07;;;0.98;;
16928;SDS011;8581;47.334;11.190;2022-07-29T08:20:11;1.05;;;1.00;;
16928;SDS011;8581;47.334;11.190;2022-07-29T08:22:43;1.45;;;1.12;;
16928;SDS011;8581;47.334;11.190;2022-07-29T08:25:15;1.87;;;1.20;;
16928;SDS011;8581;47.334;11.190;2022-07-29T08:27:46;1.20;;;1.10;;
16928;SDS011;8581;47.334;11.190;2022-07-29T08:30:18;1.85;;;1.20;;
16928;SDS011;8581;47.334;11.190;2022-07-29T08:32:49;1.15;;;1.15;;
16928;SDS011;8581;47.334;11.190;2022-07-29T08:35:22;1.07;;;1.07;;
16928;SDS011;8581;47.334;11.190;2022-07-29T08:37:53;1.00;;;1.00;;
16928;SDS011;8581;47.334;11.190;2022-07-29T08:40:24;1.20;;;1.10;;
16928;SDS011;8581;47.334;11.190;2022-07-29T08:42:56;1.67;;;1.02;;
16928;SDS011;8581;47.334;11.190;2022-07-29T08:45:28;0.90;;;0.90;;
16928;SDS011;8581;47.334;11.190;2022-07-29T08:48:00;1.65;;;1.17;;
16928;SDS011;8581;47.334;11.190;2022-07-29T08:50:33;0.80;;;0.80;;
16928;SDS011;8581;47.334;11.190;2022-07-29T08:53:03;1.10;;;1.00;;
16928;SDS011;8581;47.334;11.190;2022-07-29T08:55:35;1.20;;;1.10;;
16928;SDS011;8581;47.334;11.190;2022-07-29T08:58:07;1.45;;;1.20;;
16928;SDS011;8581;47.334;11.190;2022-07-29T09:00:41;1.20;;;1.10;;
16928;SDS011;8581;47.334;11.190;2022-07-29T09:03:14;1.10;;;1.05;;
16928;SDS011;8581;47.334;11.190;2022-07-29T09:05:45;0.90;;;0.90;;
16928;SDS011;8581;47.334;11.190;2022-07-29T09:08:16;1.47;;;1.02;;
16928;SDS011;8581;47.334;11.190;2022-07-29T09:10:47;0.93;;;0.93;;
16928;SDS011;8581;47.334;11.190;2022-07-29T09:13:19;0.80;;;0.80;;
16928;SDS011;8581;47.334;11.190;2022-07-29T09:15:51;1.12;;;1.00;;
16928;SDS011;8581;47.334;11.190;2022-07-29T09:21:05;1.20;;;0.93;;
16928;SDS011;8581;47.334;11.190;2022-07-29T09:23:57;1.12;;;1.00;;
16928;SDS011;8581;47.334;11.190;2022-07-29T09:26:13;1.15;;;0.80;;
16928;SDS011;8581;47.334;11.190;2022-07-29T09:28:45;1.45;;;0.85;;
16928;SDS011;8581;47.334;11.190;2022-07-29T09:31:16;1.30;;;1.20;;
16928;SDS011;8581;47.334;11.190;2022-07-29T09:33:48;0.90;;;0.90;;
16928;SDS011;8581;47.334;11.190;2022-07-29T09:36:19;0.90;;;0.88;;
16928;SDS011;8581;47.334;11.190;2022-07-29T09:38:57;2.87;;;1.05;;
16928;SDS011;8581;47.334;11.190;2022-07-29T09:41:28;0.98;;;0.98;;
16928;SDS011;8581;47.334;11.190;2022-07-29T09:43:59;0.98;;;0.98;;
16928;SDS011;8581;47.334;11.190;2022-07-29T09:46:31;1.32;;;0.95;;
16928;SDS011;8581;47.334;11.190;2022-07-29T09:49:07;0.90;;;0.90;;
16928;SDS011;8581;47.334;11.190;2022-07-29T09:51:38;1.17;;;1.07;;
16928;SDS011;8581;47.334;11.190;2022-07-29T09:56:52;1.35;;;0.95;;
16928;SDS011;8581;47.334;11.190;2022-07-29T09:59:25;1.07;;;0.98;;
16928;SDS011;8581;47.334;11.190;2022-07-29T10:01:56;1.17;;;1.05;;
16928;SDS011;8581;47.334;11.190;2022-07-29T10:07:10;1.15;;;1.10;;
16928;SDS011;8581;47.334;11.190;2022-07-29T10:09:51;1.10;;;1.00;;
16928;SDS011;8581;47.334;11.190;2022-07-29T10:12:24;1.75;;;1.20;;
16928;SDS011;8581;47.334;11.190;2022-07-29T10:14:56;1.45;;;1.20;;
16928;SDS011;8581;47.334;11.190;2022-07-29T10:17:27;1.22;;;1.12;;
16928;SDS011;8581;47.334;11.190;2022-07-29T10:19:59;2.08;;;1.00;;
16928;SDS011;8581;47.334;11.190;2022-07-29T10:22:31;2.05;;;1.00;;
16928;SDS011;8581;47.334;11.190;2022-07-29T10:25:02;3.20;;;1.27;;
16928;SDS011;8581;47.334;11.190;2022-07-29T10:27:35;1.20;;;1.10;;
16928;SDS011;8581;47.334;11.190;2022-07-29T10:30:06;1.22;;;1.05;;
16928;SDS011;8581;47.334;11.190;2022-07-29T10:32:45;1.70;;;1.07;;
16928;SDS011;8581;47.334;11.190;2022-07-29T10:39:05;1.25;;;1.12;;
16928;SDS011;8581;47.334;11.190;2022-07-29T10:44:01;4.53;;;1.00;;
16928;SDS011;8581;47.334;11.190;2022-07-29T10:46:42;1.00;;;0.90;;
16928;SDS011;8581;47.334;11.190;2022-07-29T10:49:19;1.42;;;1.17;;
16928;SDS011;8581;47.334;11.190;2022-07-29T10:51:52;3.25;;;1.00;;
16928;SDS011;8581;47.334;11.190;2022-07-29T10:57:20;2.50;;;1.07;;
16928;SDS011;8581;47.334;11.190;2022-07-29T11:02:47;0.90;;;0.90;;
16928;SDS011;8581;47.334;11.190;2022-07-29T11:05:19;1.62;;;1.10;;
16928;SDS011;8581;47.334;11.190;2022-07-29T11:10:33;2.35;;;1.12;;
16928;SDS011;8581;47.334;11.190;2022-07-29T11:13:05;1.52;;;1.40;;
16928;SDS011;8581;47.334;11.190;2022-07-29T11:18:20;1.80;;;1.00;;
16928;SDS011;8581;47.334;11.190;2022-07-29T11:20:51;1.42;;;1.30;;
16928;SDS011;8581;47.334;11.190;2022-07-29T11:23:26;1.40;;;1.20;;
16928;SDS011;8581;47.334;11.190;2022-07-29T11:28:54;1.72;;;1.30;;
16928;SDS011;8581;47.334;11.190;2022-07-29T11:31:33;1.20;;;1.10;;
16928;SDS011;8581;47.334;11.190;2022-07-29T11:34:17;2.05;;;1.20;;
16928;SDS011;8581;47.334;11.190;2022-07-29T11:39:33;2.30;;;1.25;;
16928;SDS011;8581;47.334;11.190;2022-07-29T11:45:06;2.17;;;1.20;;
16928;SDS011;8581;47.334;11.190;2022-07-29T11:47:39;3.12;;;1.40;;
16928;SDS011;8581;47.334;11.190;2022-07-29T11:50:12;2.87;;;1.47;;
16928;SDS011;8581;47.334;11.190;2022-07-29T11:52:44;1.27;;;1.17;;
16928;SDS011;8581;47.334;11.190;2022-07-29T11:55:16;1.20;;;1.10;;
16928;SDS011;8581;47.334;11.190;2022-07-29T11:57:47;1.50;;;1.02;;
16928;SDS011;8581;47.334;11.190;2022-07-29T12:00:23;1.35;;;1.25;;
16928;SDS011;8581;47.334;11.190;2022-07-29T12:02:54;1.35;;;1.10;;
16928;SDS011;8581;47.334;11.190;2022-07-29T12:05:32;1.45;;;1.22;;
16928;SDS011;8581;47.334;11.190;2022-07-29T12:08:05;1.82;;;1.20;;
16928;SDS011;8581;47.334;11.190;2022-07-29T12:10:36;1.10;;;1.10;;
16928;SDS011;8581;47.334;11.190;2022-07-29T12:13:07;1.30;;;1.10;;
16928;SDS011;8581;47.334;11.190;2022-07-29T12:15:39;1.10;;;1.10;;
16928;SDS011;8581;47.334;11.190;2022-07-29T12:18:18;1.35;;;1.17;;
16928;SDS011;8581;47.334;11.190;2022-07-29T12:20:57;1.20;;;1.10;;
16928;SDS011;8581;47.334;11.190;2022-07-29T12:23:29;2.58;;;1.20;;
16928;SDS011;8581;47.334;11.190;2022-07-29T12:26:03;2.33;;;1.12;;
16928;SDS011;8581;47.334;11.190;2022-07-29T12:28:37;2.83;;;1.20;;
16928;SDS011;8581;47.334;11.190;2022-07-29T12:31:14;1.40;;;1.27;;
16928;SDS011;8581;47.334;11.190;2022-07-29T12:33:51;1.35;;;1.20;;
16928;SDS011;8581;47.334;11.190;2022-07-29T12:36:22;1.40;;;1.30;;
16928;SDS011;8581;47.334;11.190;2022-07-29T12:38:54;1.35;;;1.20;;
16928;SDS011;8581;47.334;11.190;2022-07-29T12:41:29;1.05;;;1.00;;
16928;SDS011;8581;47.334;11.190;2022-07-29T12:44:01;1.92;;;1.00;;
16928;SDS011;8581;47.334;11.190;2022-07-29T12:46:32;1.30;;;1.20;;
16928;SDS011;8581;47.334;11.190;2022-07-29T12:49:04;0.95;;;0.95;;
16928;SDS011;8581;47.334;11.190;2022-07-29T12:51:37;1.90;;;1.40;;
16928;SDS011;8581;47.334;11.190;2022-07-29T12:54:10;1.62;;;1.20;;
16928;SDS011;8581;47.334;11.190;2022-07-29T12:56:42;3.10;;;1.20;;
16928;SDS011;8581;47.334;11.190;2022-07-29T12:59:15;1.22;;;1.15;;
16928;SDS011;8581;47.334;11.190;2022-07-29T13:01:47;1.25;;;1.17;;
16928;SDS011;8581;47.334;11.190;2022-07-29T13:04:25;1.30;;;1.20;;
16928;SDS011;8581;47.334;11.190;2022-07-29T13:06:58;2.75;;;1.40;;
16928;SDS011;8581;47.334;11.190;2022-07-29T13:09:36;2.20;;;1.25;;
16928;SDS011;8581;47.334;11.190;2022-07-29T13:12:08;2.00;;;1.40;;
16928;SDS011;8581;47.334;11.190;2022-07-29T13:14:41;1.77;;;1.25;;
16928;SDS011;8581;47.334;11.190;2022-07-29T13:17:18;3.42;;;1.37;;
16928;SDS011;8581;47.334;11.190;2022-07-29T13:19:50;1.50;;;1.40;;
16928;SDS011;8581;47.334;11.190;2022-07-29T13:22:23;1.85;;;1.50;;
16928;SDS011;8581;47.334;11.190;2022-07-29T13:24:54;1.62;;;1.50;;
16928;SDS011;8581;47.334;11.190;2022-07-29T13:27:25;1.57;;;1.40;;
16928;SDS011;8581;47.334;11.190;2022-07-29T13:29:57;1.87;;;1.60;;
16928;SDS011;8581;47.334;11.190;2022-07-29T13:32:29;3.60;;;2.33;;
16928;SDS011;8581;47.334;11.190;2022-07-29T13:35:01;2.17;;;1.55;;
16928;SDS011;8581;47.334;11.190;2022-07-29T13:37:32;2.85;;;1.60;;
16928;SDS011;8581;47.334;11.190;2022-07-29T13:40:03;2.22;;;1.80;;
16928;SDS011;8581;47.334;11.190;2022-07-29T13:42:36;2.45;;;1.90;;
16928;SDS011;8581;47.334;11.190;2022-07-29T13:45:07;3.05;;;1.95;;
16928;SDS011;8581;47.334;11.190;2022-07-29T13:47:39;3.87;;;1.85;;
16928;SDS011;8581;47.334;11.190;2022-07-29T13:50:11;2.12;;;1.95;;
16928;SDS011;8581;47.334;11.190;2022-07-29T13:52:42;2.75;;;2.40;;
16928;SDS011;8581;47.334;11.190;2022-07-29T13:55:14;2.20;;;2.10;;
16928;SDS011;8581;47.334;11.190;2022-07-29T13:57:45;4.07;;;2.50;;
16928;SDS011;8581;47.334;11.190;2022-07-29T14:00:17;2.17;;;1.98;;
16928;SDS011;8581;47.334;11.190;2022-07-29T14:02:49;2.30;;;2.10;;
16928;SDS011;8581;47.334;11.190;2022-07-29T14:05:20;2.70;;;2.50;;
16928;SDS011;8581;47.334;11.190;2022-07-29T14:07:52;2.17;;;1.97;;
16928;SDS011;8581;47.334;11.190;2022-07-29T14:10:23;2.40;;;2.20;;
16928;SDS011;8581;47.334;11.190;2022-07-29T14:12:55;2.20;;;2.00;;
16928;SDS011;8581;47.334;11.190;2022-07-29T14:15:27;2.47;;;2.27;;
16928;SDS011;8581;47.334;11.190;2022-07-29T14:17:58;2.70;;;2.50;;
16928;SDS011;8581;47.334;11.190;2022-07-29T14:20:30;2.00;;;1.90;;
16928;SDS011;8581;47.334;11.190;2022-07-29T14:23:02;2.27;;;2.07;;
16928;SDS011;8581;47.334;11.190;2022-07-29T14:25:33;1.90;;;1.80;;
16928;SDS011;8581;47.334;11.190;2022-07-29T14:28:05;2.13;;;1.67;;
16928;SDS011;8581;47.334;11.190;2022-07-29T14:30:36;3.37;;;1.57;;
16928;SDS011;8581;47.334;11.190;2022-07-29T14:33:08;1.70;;;1.60;;
16928;SDS011;8581;47.334;11.190;2022-07-29T14:35:39;3.40;;;1.50;;
16928;SDS011;8581;47.334;11.190;2022-07-29T14:38:11;1.43;;;1.30;;
16928;SDS011;8581;47.334;11.190;2022-07-29T14:40:43;1.93;;;1.40;;
16928;SDS011;8581;47.334;11.190;2022-07-29T14:43:14;1.33;;;1.23;;
16928;SDS011;8581;47.334;11.190;2022-07-29T14:45:46;2.57;;;1.30;;
16928;SDS011;8581;47.334;11.190;2022-07-29T14:48:18;2.43;;;1.20;;
16928;SDS011;8581;47.334;11.190;2022-07-29T14:50:49;1.37;;;1.07;;
16928;SDS011;8581;47.334;11.190;2022-07-29T14:53:21;2.50;;;1.20;;
16928;SDS011;8581;47.334;11.190;2022-07-29T14:55:52;1.40;;;1.20;;
16928;SDS011;8581;47.334;11.190;2022-07-29T14:58:24;1.57;;;1.30;;
16928;SDS011;8581;47.334;11.190;2022-07-29T15:00:56;1.00;;;1.00;;
16928;SDS011;8581;47.334;11.190;2022-07-29T15:03:27;1.13;;;1.03;;
16928;SDS011;8581;47.334;11.190;2022-07-29T15:05:59;1.37;;;1.27;;
16928;SDS011;8581;47.334;11.190;2022-07-29T15:08:30;2.30;;;1.63;;
16928;SDS011;8581;47.334;11.190;2022-07-29T15:11:02;2.90;;;1.50;;
16928;SDS011;8581;47.334;11.190;2022-07-29T15:13:34;2.07;;;1.87;;
16928;SDS011;8581;47.334;11.190;2022-07-29T15:16:05;2.03;;;1.70;;
16928;SDS011;8581;47.334;11.190;2022-07-29T15:18:37;1.77;;;1.60;;
16928;SDS011;8581;47.334;11.190;2022-07-29T15:21:08;3.60;;;1.80;;
16928;SDS011;8581;47.334;11.190;2022-07-29T15:23:40;3.37;;;2.20;;
16928;SDS011;8581;47.334;11.190;2022-07-29T15:26:11;2.73;;;1.73;;
16928;SDS011;8581;47.334;11.190;2022-07-29T15:28:43;1.97;;;1.80;;
16928;SDS011;8581;47.334;11.190;2022-07-29T15:31:16;3.57;;;2.60;;
16928;SDS011;8581;47.334;11.190;2022-07-29T15:33:49;5.53;;;3.67;;
16928;SDS011;8581;47.334;11.190;2022-07-29T15:36:21;4.53;;;3.10;;
16928;SDS011;8581;47.334;11.190;2022-07-29T15:38:53;4.87;;;2.40;;
16928;SDS011;8581;47.334;11.190;2022-07-29T15:41:24;4.33;;;2.60;;
16928;SDS011;8581;47.334;11.190;2022-07-29T15:43:56;3.13;;;2.80;;
16928;SDS011;8581;47.334;11.190;2022-07-29T15:46:27;3.40;;;3.10;;
16928;SDS011;8581;47.334;11.190;2022-07-29T15:49:05;2.83;;;2.53;;
16928;SDS011;8581;47.334;11.190;2022-07-29T15:51:36;2.90;;;2.67;;
16928;SDS011;8581;47.334;11.190;2022-07-29T15:54:08;3.80;;;2.30;;
16928;SDS011;8581;47.334;11.190;2022-07-29T15:56:39;4.67;;;2.73;;